Amity, Oregon
Current Conditions -  °F | °C
As of 7:53 PM on Wednesday 17 Dec 2014 (Local Time) from KMMV Reporting Station
Overcast Overcast  
Wind Chill: 44°   Ceiling: 10000
Heat Index: 47°   Visibility: 10mi
Dew Point: 44°   Wind: 7mph
Humidity: 90%   Direction: 210°SSW
Pressure: 29.95"   Gusts: NA
Location:  45.12°N, 123.21°W
Report Text: KMMV 180353Z AUTO 21006KT 10SM SCT075 OVC100 08/07 A2995 RMK AO2 SLP142 T00830067
Loading
Personal Weather Stations






























Interactive Weather Map New forecast layout! Learn more

10-Day Weather Forecast

Advertisements
Track Severe Weather on mobile